Time;durP1;ratioP1;P1;durP2;ratioP2;P2;SDS_P1;SDS_P2;PMS_P1;PMS_P2;Temp;Humidity;BMP_temperature;BMP_pressure;BME280_temperature;BME280_humidity;BME280_pressure;Samples;Min_cycle;Max_cycle;Signal;HPM_P1;HPM_P2
2022/08/12 00:43:28;;;;;;;5.88;3.33;;;14.60;83.70;;;;;;4823475;29;20571;-52
2022/08/12 00:48:40;;;;;;;12.18;2.90;;;14.80;83.30;;;;;;4823074;29;20049;-51
2022/08/12 00:51:07;;;;;;;8.30;2.97;;;14.90;83.80;;;;;;4823003;29;20035;-52
2022/08/12 00:53:34;;;;;;;4.70;3.85;;;15.00;83.80;;;;;;4822796;29;20054;-51
2022/08/12 00:56:00;;;;;;;8.98;3.70;;;15.00;83.20;;;;;;4822930;29;20034;-53
2022/08/12 00:58:28;;;;;;;7.50;3.17;;;14.90;83.30;;;;;;4821552;29;20032;-53
2022/08/12 01:01:05;;;;;;;12.13;5.38;;;14.70;84.40;;;;;;4822969;29;20095;-53
2022/08/12 01:11:59;;;;;;;6.47;3.38;;;14.50;86.70;;;;;;4822918;29;20567;-51
2022/08/12 01:14:25;;;;;;;4.20;3.03;;;14.50;86.90;;;;;;4822496;29;20042;-50
2022/08/12 01:16:52;;;;;;;4.35;3.20;;;14.40;87.60;;;;;;4822722;29;20038;-50
2022/08/12 01:19:20;;;;;;;9.70;3.15;;;14.30;88.30;;;;;;4821322;29;20069;-52
2022/08/12 01:22:10;;;;;;;3.47;3.08;;;14.30;88.80;;;;;;4822489;29;20026;-49
2022/08/12 01:24:42;;;;;;;7.38;3.53;;;14.50;89.20;;;;;;4822359;29;20436;-50
2022/08/12 01:27:11;;;;;;;4.40;2.80;;;14.60;89.50;;;;;;4822304;29;20502;-49
2022/08/12 01:29:42;;;;;;;6.53;3.55;;;14.60;89.00;;;;;;4824674;29;20042;-49
2022/08/12 01:32:13;;;;;;;13.10;3.95;;;14.80;89.40;;;;;;4826238;29;20379;-52
2022/08/12 01:34:50;;;;;;;8.43;3.38;;;14.90;88.70;;;;;;4826095;29;20102;-49
2022/08/12 01:37:18;;;;;;;7.05;3.20;;;15.00;88.20;;;;;;4825584;29;20046;-52
2022/08/12 01:39:53;;;;;;;7.97;3.42;;;15.10;87.90;;;;;;4825977;29;20113;-52
2022/08/12 01:42:20;;;;;;;8.57;3.70;;;15.10;88.00;;;;;;4825859;29;20470;-50
2022/08/12 01:44:47;;;;;;;9.05;3.50;;;15.20;88.10;;;;;;4825610;29;20034;-51
2022/08/12 01:47:41;;;;;;;4.50;3.05;;;15.10;88.30;;;;;;4825636;29;20049;-50
2022/08/12 01:50:16;;;;;;;7.70;3.95;;;15.10;88.30;;;;;;4825468;29;20026;-51
2022/08/12 01:52:53;;;;;;;5.38;3.08;;;15.10;88.70;;;;;;4825625;29;20444;-50
2022/08/12 01:55:22;;;;;;;7.45;3.65;;;15.10;89.10;;;;;;4825749;29;20034;-49
2022/08/12 01:58:08;;;;;;;7.03;3.67;;;15.00;89.50;;;;;;4824307;29;20038;-51
2022/08/12 02:00:50;;;;;;;6.88;3.63;;;15.00;89.90;;;;;;4825633;29;20510;-50
2022/08/12 02:12:39;;;;;;;7.20;3.57;;;14.70;90.90;;;;;;4807320;29;20046;-50
2022/08/12 02:15:11;;;;;;;9.35;3.58;;;14.70;91.00;;;;;;4807428;29;20031;-50
2022/08/12 02:17:59;;;;;;;6.25;3.58;;;14.70;91.10;;;;;;4807395;29;20604;-50
2022/08/12 02:21:04;;;;;;;9.50;4.00;;;14.70;91.30;;;;;;4807241;29;20447;-48
2022/08/12 02:23:31;;;;;;;5.95;3.58;;;14.60;91.50;;;;;;4824417;29;20038;-50
2022/08/12 02:26:06;;;;;;;10.45;4.68;;;14.40;92.10;;;;;;4824927;29;20474;-52
2022/08/12 02:28:32;;;;;;;3.72;3.30;;;14.10;93.00;;;;;;4825032;29;20038;-49
2022/08/12 02:31:04;;;;;;;8.73;4.35;;;13.90;93.60;;;;;;4825140;29;20030;-49
2022/08/12 02:33:31;;;;;;;10.93;4.75;;;13.80;94.20;;;;;;4825182;29;20509;-49
2022/08/12 02:36:01;;;;;;;9.13;3.38;;;13.90;94.40;;;;;;4825023;29;20038;-51
2022/08/12 02:38:29;;;;;;;5.50;3.70;;;14.00;94.40;;;;;;4825163;29;20029;-51
2022/08/12 02:40:56;;;;;;;6.32;3.90;;;14.00;94.60;;;;;;4823521;29;20568;-53
2022/08/12 02:43:27;;;;;;;12.63;4.15;;;13.90;94.80;;;;;;4824992;29;20034;-52
2022/08/12 02:46:02;;;;;;;10.20;4.10;;;14.00;95.10;;;;;;4824987;29;20031;-52
2022/08/12 02:48:34;;;;;;;12.57;4.63;;;14.00;95.20;;;;;;4824867;29;20038;-51
2022/08/12 02:51:04;;;;;;;6.20;4.07;;;14.10;95.20;;;;;;4824808;29;20033;-53
2022/08/12 02:53:33;;;;;;;5.35;4.43;;;14.20;95.10;;;;;;4824944;29;20023;-50
2022/08/12 02:56:01;;;;;;;6.05;4.40;;;14.20;95.10;;;;;;4824476;29;20087;-52
2022/08/12 02:58:30;;;;;;;7.63;3.42;;;14.10;95.40;;;;;;4824825;29;20038;-50
2022/08/12 03:01:00;;;;;;;9.18;3.97;;;14.00;95.50;;;;;;4824758;29;20038;-53
2022/08/12 03:03:29;;;;;;;12.93;3.90;;;14.00;95.70;;;;;;4824739;29;20034;-50
2022/08/12 03:06:16;;;;;;;9.60;4.20;;;14.10;95.80;;;;;;4824569;29;20049;-50
2022/08/12 03:08:42;;;;;;;6.95;3.85;;;14.10;95.80;;;;;;4824701;29;20379;-50
2022/08/12 03:11:35;;;;;;;5.40;4.07;;;14.20;95.70;;;;;;4824144;29;20033;-49
2022/08/12 03:14:01;;;;;;;6.78;3.60;;;14.20;95.60;;;;;;4824142;29;20494;-50
2022/08/12 03:16:31;;;;;;;14.70;3.95;;;14.40;95.40;;;;;;4824492;29;20041;-51
2022/08/12 03:18:57;;;;;;;9.10;3.40;;;14.40;95.30;;;;;;4824345;29;20025;-54
2022/08/12 03:21:24;;;;;;;4.70;3.60;;;14.50;95.10;;;;;;4824390;29;20034;-51
2022/08/12 03:23:53;;;;;;;9.20;4.35;;;14.50;95.10;;;;;;4824265;29;20038;-51
2022/08/12 03:26:24;;;;;;;10.70;3.47;;;14.50;95.20;;;;;;4824308;29;20034;-50
2022/08/12 03:28:55;;;;;;;10.25;3.92;;;14.50;95.20;;;;;;4824149;29;20031;-52
2022/08/12 03:31:28;;;;;;;7.60;3.33;;;14.50;95.10;;;;;;4824308;29;20027;-49
2022/08/12 03:34:11;;;;;;;15.07;4.20;;;14.50;95.20;;;;;;4824151;29;20029;-53
2022/08/12 03:36:38;;;;;;;7.50;3.50;;;14.50;95.00;;;;;;4821883;29;20066;-50
2022/08/12 03:42:15;;;;;;;5.32;3.50;;;14.60;94.80;;;;;;4824245;29;20050;-51
2022/08/12 04:01:51;;;;;;;12.05;3.72;;;14.60;95.30;;;;;;4824055;29;20037;-50
2022/08/12 04:04:17;;;;;;;4.97;3.63;;;14.60;95.20;;;;;;4823562;29;20026;-50
2022/08/12 04:06:44;;;;;;;7.88;3.72;;;14.60;95.20;;;;;;4823597;29;20053;-50
2022/08/12 04:09:11;;;;;;;6.70;3.63;;;14.60;95.30;;;;;;4823405;29;20027;-51
2022/08/12 04:14:25;;;;;;;8.45;3.65;;;14.40;96.10;;;;;;4823403;29;20120;-50
2022/08/12 04:16:51;;;;;;;5.05;3.80;;;14.40;96.40;;;;;;4823516;29;20038;-50
2022/08/12 04:19:18;;;;;;;10.63;3.95;;;14.40;96.40;;;;;;4823431;29;20037;-49
2022/08/12 04:21:44;;;;;;;11.82;5.53;;;14.40;96.80;;;;;;4823425;29;20030;-50
2022/08/12 04:24:10;;;;;;;20.83;5.32;;;14.40;96.60;;;;;;4823030;29;20126;-49
2022/08/12 04:26:38;;;;;;;7.15;4.05;;;14.40;96.70;;;;;;4822266;29;20372;-52
2022/08/12 04:29:05;;;;;;;6.18;3.25;;;14.50;96.60;;;;;;4823296;29;20057;-51
2022/08/12 04:31:32;;;;;;;5.88;3.35;;;14.50;96.50;;;;;;4823331;29;20062;-49
2022/08/12 04:33:59;;;;;;;13.75;4.32;;;14.50;96.70;;;;;;4823202;29;20512;-50
2022/08/12 04:36:25;;;;;;;10.77;4.63;;;14.50;96.50;;;;;;4823115;29;20038;-50
2022/08/12 04:38:53;;;;;;;9.32;4.00;;;14.60;96.80;;;;;;4823029;29;20035;-50
2022/08/12 04:41:19;;;;;;;6.72;3.25;;;14.60;96.80;;;;;;4823161;29;20030;-49
2022/08/12 04:43:47;;;;;;;5.13;3.33;;;14.60;97.00;;;;;;4823231;29;20032;-49
2022/08/12 04:46:14;;;;;;;7.85;3.42;;;14.60;97.10;;;;;;4821797;29;20027;-50
2022/08/12 04:48:40;;;;;;;6.50;3.55;;;14.60;97.20;;;;;;4823158;29;20038;-49
2022/08/12 04:51:06;;;;;;;7.40;3.75;;;14.60;97.30;;;;;;4822841;29;20446;-50
2022/08/12 04:53:32;;;;;;;7.57;3.20;;;14.70;97.50;;;;;;4822813;29;20122;-49
2022/08/12 04:55:59;;;;;;;8.00;3.38;;;14.80;97.30;;;;;;4822931;29;20031;-51
2022/08/12 04:58:27;;;;;;;10.45;3.22;;;14.90;97.10;;;;;;4823057;29;20388;-51
2022/08/12 05:00:53;;;;;;;6.25;3.10;;;15.00;96.70;;;;;;4823096;29;20068;-50
2022/08/12 05:03:19;;;;;;;4.38;3.28;;;15.00;96.70;;;;;;4822260;29;20026;-49
2022/08/12 05:05:45;;;;;;;4.75;3.40;;;15.10;96.80;;;;;;4821387;29;20039;-53
2022/08/12 05:08:12;;;;;;;6.60;4.03;;;15.10;96.60;;;;;;4822038;29;20057;-51
2022/08/12 05:10:38;;;;;;;8.02;3.40;;;15.20;96.80;;;;;;4822585;29;20375;-51
2022/08/12 05:13:08;;;;;;;6.25;3.30;;;15.20;96.90;;;;;;4822182;29;20053;-52
2022/08/12 05:15:39;;;;;;;16.52;3.58;;;15.30;96.80;;;;;;4822697;29;20026;-51
2022/08/12 05:18:05;;;;;;;4.25;2.83;;;15.40;96.50;;;;;;4822682;29;20073;-50
2022/08/12 05:20:30;;;;;;;5.63;2.90;;;15.50;96.40;;;;;;4822706;29;20070;-54
2022/08/12 05:23:17;;;;;;;9.45;3.40;;;15.50;96.30;;;;;;4822215;29;20038;-51
2022/08/12 05:25:48;;;;;;;12.32;3.15;;;15.60;95.70;;;;;;4822448;29;20038;-52
2022/08/12 05:28:15;;;;;;;4.72;2.92;;;15.70;95.90;;;;;;4822190;29;20125;-52
2022/08/12 05:30:42;;;;;;;5.22;2.78;;;15.80;95.80;;;;;;4820945;29;20026;-52
2022/08/12 05:33:08;;;;;;;6.30;3.35;;;15.70;95.80;;;;;;4820170;29;20086;-50
2022/08/12 05:35:40;;;;;;;4.35;2.65;;;15.80;95.80;;;;;;4820144;29;20472;-50
2022/08/12 05:41:04;;;;;;;13.65;3.63;;;15.90;95.60;;;;;;4820607;29;20057;-50
2022/08/12 05:43:32;;;;;;;4.10;2.92;;;15.90;96.20;;;;;;4819396;29;20030;-50
2022/08/12 05:45:58;;;;;;;10.43;2.97;;;16.00;95.80;;;;;;4819638;29;20092;-52
2022/08/12 05:48:23;;;;;;;6.43;2.60;;;16.00;95.80;;;;;;4819214;29;20341;-50
2022/08/12 05:50:49;;;;;;;13.63;3.20;;;16.10;95.40;;;;;;4818896;29;20026;-50
2022/08/12 05:53:15;;;;;;;2.55;2.30;;;16.10;95.40;;;;;;4818755;29;20045;-49
2022/08/12 05:55:41;;;;;;;4.30;2.53;;;16.10;95.40;;;;;;4818952;29;20182;-50
2022/08/12 05:58:07;;;;;;;15.88;2.63;;;16.20;95.10;;;;;;4819541;29;20030;-50
2022/08/12 06:00:34;;;;;;;7.30;2.78;;;16.20;95.00;;;;;;4819877;29;20038;-52
2022/08/12 06:03:01;;;;;;;2.95;2.67;;;16.20;94.50;;;;;;4819505;29;20033;-49
2022/08/12 06:05:28;;;;;;;5.85;3.10;;;16.30;94.80;;;;;;4820747;29;20062;-49
2022/08/12 06:07:56;;;;;;;7.25;3.05;;;16.40;94.60;;;;;;4820993;29;20034;-51
2022/08/12 06:10:22;;;;;;;9.15;2.75;;;16.50;94.50;;;;;;4820953;29;20027;-53
2022/08/12 06:12:48;;;;;;;10.98;2.88;;;16.40;94.00;;;;;;4820765;29;20722;-52
2022/08/12 06:15:20;;;;;;;8.88;2.72;;;16.50;94.00;;;;;;4822192;29;20058;-53
2022/08/12 06:17:46;;;;;;;6.03;2.50;;;16.50;94.10;;;;;;4823951;29;20372;-49
2022/08/12 06:20:14;;;;;;;14.90;3.10;;;16.60;94.30;;;;;;4824101;29;20031;-50
2022/08/12 06:22:41;;;;;;;6.57;2.15;;;16.70;93.80;;;;;;4824077;29;20031;-51
2022/08/12 06:25:07;;;;;;;8.20;2.65;;;16.60;93.80;;;;;;4823926;29;20022;-53
2022/08/12 06:27:40;;;;;;;5.00;2.17;;;16.70;94.50;;;;;;4823817;29;20444;-49
2022/08/12 06:30:07;;;;;;;2.22;2.03;;;16.80;93.80;;;;;;4823931;29;20398;-49
2022/08/12 06:32:33;;;;;;;13.05;2.67;;;16.80;93.80;;;;;;4823757;29;20038;-50
2022/08/12 06:34:58;;;;;;;6.15;2.53;;;16.80;93.90;;;;;;4823786;29;20483;-51
2022/08/12 06:37:24;;;;;;;5.75;2.35;;;16.80;93.20;;;;;;4823815;29;20030;-51
2022/08/12 06:39:50;;;;;;;4.07;2.42;;;16.90;93.80;;;;;;4823822;29;20026;-51
2022/08/12 06:44:59;;;;;;;4.20;2.65;;;17.00;93.80;;;;;;4831165;29;20401;-52
2022/08/12 06:47:25;;;;;;;9.68;2.20;;;17.00;93.70;;;;;;4838306;29;20034;-50
2022/08/12 06:49:51;;;;;;;7.13;2.25;;;17.10;93.60;;;;;;4824689;29;20030;-49
2022/08/12 06:52:20;;;;;;;4.68;2.17;;;17.10;93.80;;;;;;4824561;29;20031;-50
2022/08/12 06:54:46;;;;;;;4.05;2.67;;;17.10;93.70;;;;;;4824530;29;20050;-50
2022/08/12 06:57:11;;;;;;;8.65;2.17;;;17.20;93.20;;;;;;4824353;29;20066;-50
2022/08/12 06:59:39;;;;;;;5.57;2.30;;;17.30;93.80;;;;;;4824316;29;20104;-50
2022/08/12 07:02:05;;;;;;;5.43;2.30;;;17.40;93.10;;;;;;4824038;29;20030;-54
2022/08/12 07:04:34;;;;;;;2.92;1.98;;;17.40;93.40;;;;;;4824854;29;20710;-51
2022/08/12 07:06:59;;;;;;;3.40;2.10;;;17.50;93.60;;;;;;4824009;29;20034;-50
2022/08/12 07:09:26;;;;;;;6.70;2.25;;;17.70;93.70;;;;;;4824504;29;20034;-52
2022/08/12 07:11:52;;;;;;;3.50;2.33;;;17.80;93.00;;;;;;4824421;29;20419;-51
2022/08/12 07:14:18;;;;;;;7.40;2.05;;;17.90;93.00;;;;;;4824157;29;20053;-50
2022/08/12 07:16:55;;;;;;;7.18;2.30;;;18.00;93.20;;;;;;4823867;29;20497;-51
2022/08/12 07:19:21;;;;;;;4.40;2.10;;;18.20;92.30;;;;;;4824608;29;20496;-50
2022/08/12 07:21:48;;;;;;;7.45;1.67;;;18.30;92.40;;;;;;4824168;29;20022;-50
2022/08/12 07:24:13;;;;;;;8.98;2.15;;;18.10;91.50;;;;;;4824049;29;20780;-51
2022/08/12 07:26:40;;;;;;;8.88;2.22;;;18.20;91.90;;;;;;4823526;29;20038;-51
2022/08/12 07:29:09;;;;;;;6.25;1.85;;;18.30;92.50;;;;;;4822788;29;20026;-52
2022/08/12 07:31:39;;;;;;;2.83;1.80;;;18.40;91.50;;;;;;4823650;29;20039;-50
2022/08/12 07:34:06;;;;;;;9.20;2.22;;;18.50;91.50;;;;;;4824085;29;20031;-50
2022/08/12 07:36:32;;;;;;;6.00;1.63;;;18.60;91.20;;;;;;4823972;29;20022;-53
2022/08/12 07:38:59;;;;;;;12.52;2.38;;;18.90;91.00;;;;;;4823770;29;20034;-50
2022/08/12 07:41:30;;;;;;;13.57;2.35;;;18.80;90.20;;;;;;4823953;29;20029;-53
2022/08/12 07:44:05;;;;;;;3.25;1.80;;;18.90;91.10;;;;;;4823746;29;20023;-51
2022/08/12 07:46:42;;;;;;;1.98;1.63;;;19.10;90.20;;;;;;4823470;29;20041;-49
2022/08/12 07:49:11;;;;;;;6.10;1.60;;;19.20;89.40;;;;;;4823945;29;20067;-51
2022/08/12 07:51:38;;;;;;;7.20;1.77;;;19.30;89.30;;;;;;4824188;29;20410;-53
2022/08/12 07:54:08;;;;;;;8.85;1.83;;;19.20;88.90;;;;;;4824115;29;20018;-50
2022/08/12 07:56:35;;;;;;;5.55;1.77;;;19.30;90.30;;;;;;4823677;29;20050;-51
2022/08/12 07:59:01;;;;;;;10.45;1.88;;;19.50;90.00;;;;;;4823701;29;20030;-58
2022/08/12 08:01:28;;;;;;;7.45;1.70;;;19.60;89.30;;;;;;4822272;29;20391;-51
2022/08/12 08:06:41;;;;;;;5.20;1.83;;;19.70;89.20;;;;;;4823654;29;20061;-53
2022/08/12 08:09:09;;;;;;;11.55;1.60;;;19.70;89.60;;;;;;4823383;29;20030;-52
2022/08/12 08:14:19;;;;;;;4.97;2.20;;;19.70;87.40;;;;;;4823418;29;20088;-54
2022/08/12 08:16:47;;;;;;;7.45;1.83;;;19.90;90.00;;;;;;4823237;29;20034;-51
2022/08/12 08:19:22;;;;;;;2.30;2.10;;;19.90;88.10;;;;;;4823326;29;20573;-53
2022/08/12 08:21:52;;;;;;;9.75;1.70;;;19.80;88.30;;;;;;4823394;29;20544;-51
2022/08/12 08:24:18;;;;;;;2.00;1.75;;;20.00;87.50;;;;;;4823355;29;20475;-51
2022/08/12 08:26:50;;;;;;;2.30;2.10;;;20.10;87.40;;;;;;4823402;29;20030;-51
2022/08/12 08:29:17;;;;;;;3.63;1.90;;;20.00;85.40;;;;;;4823289;29;20366;-51
2022/08/12 08:31:44;;;;;;;4.05;1.92;;;20.00;86.10;;;;;;4823086;29;20026;-51
2022/08/12 08:34:13;;;;;;;4.65;1.48;;;20.20;86.10;;;;;;4823049;29;20026;-54
2022/08/12 08:36:40;;;;;;;5.40;1.60;;;20.30;85.80;;;;;;4823241;29;20083;-52
2022/08/12 08:39:07;;;;;;;4.68;1.42;;;20.60;87.70;;;;;;4822120;29;20087;-50
2022/08/12 08:44:17;;;;;;;3.15;1.55;;;21.00;87.50;;;;;;4823099;29;20416;-50
2022/08/12 08:46:43;;;;;;;4.85;1.30;;;20.90;83.40;;;;;;4822917;29;20026;-51
2022/08/12 08:49:10;;;;;;;4.53;1.88;;;20.90;83.10;;;;;;4822988;29;20079;-51
2022/08/12 08:51:37;;;;;;;7.78;2.90;;;20.80;86.30;;;;;;4823042;29;20102;-51
2022/08/12 08:54:05;;;;;;;8.82;1.45;;;20.90;85.60;;;;;;4822732;29;20088;-51
2022/08/12 08:56:32;;;;;;;2.53;1.65;;;21.20;84.60;;;;;;4823146;29;20046;-50
2022/08/12 08:58:58;;;;;;;2.58;1.45;;;21.20;81.80;;;;;;4822044;29;20383;-50
2022/08/12 09:01:25;;;;;;;5.47;1.70;;;21.30;84.30;;;;;;4821457;29;20057;-50
2022/08/12 09:03:50;;;;;;;4.00;1.67;;;21.40;84.80;;;;;;4821692;29;20767;-49
2022/08/12 09:06:16;;;;;;;1.70;1.60;;;21.40;81.20;;;;;;4821467;29;20062;-51
2022/08/12 09:08:43;;;;;;;1.83;1.50;;;21.60;80.80;;;;;;4821827;29;20038;-52
2022/08/12 09:13:53;;;;;;;5.45;1.70;;;21.80;83.20;;;;;;4821234;29;20141;-51
2022/08/12 09:16:19;;;;;;;8.38;1.70;;;22.00;80.90;;;;;;4821867;29;20117;-50
2022/08/12 09:18:45;;;;;;;7.38;1.50;;;22.00;78.90;;;;;;4821743;29;20454;-54
2022/08/12 09:21:12;;;;;;;3.38;1.30;;;22.30;83.00;;;;;;4821397;29;20410;-50
2022/08/12 09:23:39;;;;;;;4.95;2.00;;;22.80;80.70;;;;;;4821350;29;20023;-51
2022/08/12 09:26:08;;;;;;;3.08;1.60;;;22.70;78.80;;;;;;4821676;29;20034;-51
2022/08/12 09:28:34;;;;;;;5.68;1.65;;;22.90;79.30;;;;;;4821174;29;20454;-50
2022/08/12 09:31:00;;;;;;;8.80;1.75;;;22.90;80.20;;;;;;4821401;29;20027;-52
2022/08/12 09:33:32;;;;;;;7.43;1.80;;;22.70;79.70;;;;;;4821463;29;20129;-50
2022/08/12 09:36:03;;;;;;;5.57;1.30;;;22.90;80.50;;;;;;4820968;29;20110;-52
2022/08/12 09:38:29;;;;;;;6.63;2.03;;;22.90;78.20;;;;;;4810693;29;20137;-51
2022/08/12 09:40:56;;;;;;;4.85;1.33;;;23.20;78.80;;;;;;4803114;29;20039;-53
2022/08/12 09:46:07;;;;;;;4.97;1.63;;;23.30;75.80;;;;;;4820890;29;20045;-51
2022/08/12 09:48:33;;;;;;;6.80;1.48;;;23.50;76.50;;;;;;4821003;29;20026;-51
2022/08/12 09:50:59;;;;;;;3.35;1.30;;;23.60;77.20;;;;;;4823196;29;20117;-52
2022/08/12 09:53:25;;;;;;;3.20;1.40;;;23.80;79.20;;;;;;4824396;29;20114;-51
2022/08/12 09:55:52;;;;;;;7.05;1.23;;;23.80;74.00;;;;;;4824274;29;20098;-51
2022/08/12 09:58:27;;;;;;;1.60;1.30;;;23.80;73.60;;;;;;4824153;29;20088;-51
2022/08/12 10:00:54;;;;;;;7.55;1.27;;;23.90;75.80;;;;;;4824280;29;20030;-51
2022/08/12 10:03:25;;;;;;;6.50;1.40;;;24.00;73.50;;;;;;4824362;29;20210;-52
2022/08/12 10:05:51;;;;;;;7.97;1.38;;;23.90;75.90;;;;;;4824243;29;20438;-50
2022/08/12 10:08:18;;;;;;;5.88;1.35;;;24.00;75.60;;;;;;4822911;29;20064;-54
2022/08/12 10:13:41;;;;;;;3.97;1.20;;;24.00;72.80;;;;;;4824558;29;20142;-52
2022/08/12 10:16:16;;;;;;;4.03;1.63;;;23.70;74.10;;;;;;4823897;29;20031;-51
2022/08/12 10:18:53;;;;;;;1.83;1.23;;;23.70;73.10;;;;;;4824720;29;20030;-53
2022/08/12 10:21:22;;;;;;;9.57;1.23;;;23.50;72.10;;;;;;4825283;29;20117;-52
2022/08/12 10:23:50;;;;;;;6.35;1.30;;;23.50;73.60;;;;;;4825249;29;20057;-52
2022/08/12 10:31:52;;;;;;;4.07;1.30;;;23.60;72.40;;;;;;4824948;29;20129;-51
2022/08/12 10:34:21;;;;;;;3.92;1.20;;;23.90;71.90;;;;;;4824922;29;20027;-53
2022/08/12 10:36:48;;;;;;;4.15;1.00;;;24.00;69.50;;;;;;4824852;29;20022;-51
2022/08/12 10:39:16;;;;;;;8.88;1.25;;;24.40;71.30;;;;;;4795965;29;20054;-51
2022/08/12 10:44:26;;;;;;;2.85;1.65;;;24.80;67.40;;;;;;4811653;29;20034;-54
2022/08/12 10:46:58;;;;;;;3.25;1.20;;;25.30;68.30;;;;;;4798332;29;20069;-52
2022/08/12 10:49:26;;;;;;;7.10;1.23;;;25.40;67.40;;;;;;4800471;29;20569;-57
2022/08/12 10:51:53;;;;;;;4.28;1.25;;;25.60;65.20;;;;;;4796241;29;20022;-56
2022/08/12 10:54:24;;;;;;;3.10;1.10;;;25.60;66.30;;;;;;4796579;29;20363;-57
2022/08/12 10:56:50;;;;;;;3.85;0.82;;;26.10;67.70;;;;;;4796719;29;20089;-61
2022/08/12 10:59:16;;;;;;;2.15;0.88;;;26.10;65.90;;;;;;4796489;29;20058;-52
2022/08/12 11:01:42;;;;;;;1.45;1.10;;;26.50;64.80;;;;;;4795646;29;20035;-54
2022/08/12 11:04:12;;;;;;;5.05;1.05;;;26.60;62.60;;;;;;4796147;29;20039;-54
2022/08/12 11:06:49;;;;;;;2.67;1.10;;;27.30;62.50;;;;;;4796670;29;20058;-52
2022/08/12 11:09:19;;;;;;;3.65;1.00;;;27.50;65.00;;;;;;4795933;29;20035;-50
2022/08/12 11:11:47;;;;;;;5.85;1.75;;;27.90;63.20;;;;;;4795217;29;20046;-54
2022/08/12 11:14:26;;;;;;;8.13;1.10;;;28.10;61.20;;;;;;4799782;29;20415;-50
2022/08/12 11:16:56;;;;;;;5.28;1.00;;;28.00;62.70;;;;;;4806407;29;20035;-52
2022/08/12 11:19:29;;;;;;;1.88;1.33;;;27.80;61.30;;;;;;4806456;29;20550;-49
2022/08/12 11:21:55;;;;;;;;;;;27.60;60.50;;;;;;4816657;29;20109;-52
2022/08/12 11:24:22;;;;;;;3.45;1.23;;;27.80;61.80;;;;;;4824330;29;20011;-52
2022/08/12 11:26:48;;;;;;;1.60;0.95;;;27.90;60.10;;;;;;4824035;29;20105;-53
2022/08/12 11:29:15;;;;;;;1.35;0.68;;;28.40;61.50;;;;;;4824139;29;20437;-55
2022/08/12 11:31:42;;;;;;;5.05;0.70;;;28.30;58.10;;;;;;4824268;29;20068;-52
2022/08/12 11:34:07;;;;;;;3.42;1.00;;;28.20;59.90;;;;;;4824155;29;20034;-52
2022/08/12 11:36:33;;;;;;;4.63;0.80;;;28.50;59.90;;;;;;4823978;29;20113;-53
2022/08/12 11:38:59;;;;;;;0.95;0.80;;;28.70;58.20;;;;;;4823744;29;20094;-53
2022/08/12 11:41:24;;;;;;;2.55;1.10;;;28.10;57.30;;;;;;4823940;29;20061;-54
2022/08/12 11:43:50;;;;;;;3.88;1.13;;;27.10;57.00;;;;;;4823781;29;20420;-51
2022/08/12 11:46:17;;;;;;;9.43;1.90;;;26.60;58.30;;;;;;4823867;29;20026;-51
2022/08/12 11:48:43;;;;;;;1.80;1.00;;;26.30;60.60;;;;;;4823926;29;20068;-52
2022/08/12 11:51:09;;;;;;;6.82;1.10;;;26.40;60.20;;;;;;4823260;29;20134;-53
2022/08/12 11:53:36;;;;;;;4.32;1.23;;;27.00;62.70;;;;;;4822657;29;20042;-51
2022/08/12 11:56:04;;;;;;;2.72;1.02;;;27.90;60.10;;;;;;4823433;29;20074;-51
2022/08/12 11:58:30;;;;;;;6.55;1.13;;;28.50;57.10;;;;;;4823815;29;20114;-51
2022/08/12 12:00:56;;;;;;;5.13;1.13;;;28.30;58.80;;;;;;4823675;29;20064;-51
2022/08/12 12:03:22;;;;;;;1.65;1.00;;;28.20;61.30;;;;;;4823760;29;20085;-52
2022/08/12 12:05:47;;;;;;;6.57;1.05;;;28.20;58.10;;;;;;4823736;29;20042;-53
2022/08/12 12:08:23;;;;;;;7.75;1.70;;;28.20;58.30;;;;;;4823380;29;20475;-52
2022/08/12 12:10:51;;;;;;;5.28;1.25;;;27.80;57.10;;;;;;4822298;29;20027;-52
2022/08/12 12:13:17;;;;;;;8.57;1.27;;;28.30;58.20;;;;;;4822896;29;20051;-52
2022/08/12 12:15:43;;;;;;;5.97;0.90;;;29.20;58.90;;;;;;4823360;29;20034;-52
2022/08/12 12:18:27;;;;;;;6.32;1.10;;;30.70;58.10;;;;;;4823152;29;20458;-51
2022/08/12 12:20:55;;;;;;;4.22;1.50;;;31.50;55.60;;;;;;4816335;29;20037;-51
2022/08/12 12:23:21;;;;;;;5.03;1.23;;;31.50;54.60;;;;;;4803976;29;20392;-52
2022/08/12 12:25:47;;;;;;;4.70;0.80;;;31.90;53.70;;;;;;4803001;29;20035;-54
2022/08/12 12:28:13;;;;;;;5.57;0.80;;;31.50;51.30;;;;;;4803285;29;20031;-52
2022/08/12 12:30:39;;;;;;;3.35;0.75;;;31.90;51.00;;;;;;4803585;29;20418;-54
2022/08/12 12:33:06;;;;;;;4.10;1.10;;;31.20;50.80;;;;;;4801913;29;20023;-51
2022/08/12 12:35:33;;;;;;;5.68;1.33;;;30.60;50.70;;;;;;4803318;29;20050;-55
2022/08/12 12:38:01;;;;;;;1.15;1.00;;;30.30;51.30;;;;;;4801893;29;20035;-51
2022/08/12 12:40:28;;;;;;;2.80;0.85;;;30.70;49.60;;;;;;4802245;29;20123;-52
2022/08/12 12:42:54;;;;;;;6.05;0.93;;;30.70;51.00;;;;;;4820659;29;20066;-51
2022/08/12 12:45:21;;;;;;;1.15;0.70;;;31.50;49.10;;;;;;4819101;29;20041;-56
2022/08/12 12:47:53;;;;;;;3.15;1.13;;;31.70;49.60;;;;;;4820265;29;20030;-54
2022/08/12 12:50:19;;;;;;;6.60;0.80;;;32.10;46.60;;;;;;4820385;29;20074;-50
2022/08/12 12:52:45;;;;;;;4.30;1.58;;;32.00;47.80;;;;;;4821748;29;20113;-51
2022/08/12 12:55:11;;;;;;;3.13;0.60;;;32.00;47.10;;;;;;4821654;29;20419;-54
2022/08/12 12:57:41;;;;;;;0.65;0.50;;;32.10;46.50;;;;;;4821702;29;20043;-53
2022/08/12 13:00:15;;;;;;;6.03;0.63;;;31.50;46.10;;;;;;4800105;29;20119;-53
2022/08/12 13:02:51;;;;;;;3.97;0.98;;;31.90;46.60;;;;;;4792887;29;20514;-53
2022/08/12 13:05:43;;;;;;;4.00;1.15;;;32.30;47.60;;;;;;4791747;29;20047;-54
2022/08/12 13:08:26;;;;;;;4.80;1.05;;;31.60;47.50;;;;;;4792685;29;20122;-50
2022/08/12 13:10:59;;;;;;;5.80;1.10;;;30.50;46.10;;;;;;4793704;29;20397;-52
2022/08/12 13:13:28;;;;;;;1.65;0.70;;;30.30;47.30;;;;;;4792227;29;20531;-52
2022/08/12 13:15:55;;;;;;;1.73;1.02;;;29.70;49.10;;;;;;4792810;29;20093;-53
2022/08/12 13:18:21;;;;;;;9.38;1.00;;;29.20;50.90;;;;;;4792220;29;20027;-51
2022/08/12 13:20:48;;;;;;;2.55;1.00;;;29.20;50.10;;;;;;4792148;29;20442;-51
2022/08/12 13:23:18;;;;;;;8.45;1.60;;;28.90;50.50;;;;;;4792390;29;22347;-52
2022/08/12 13:25:45;;;;;;;4.32;1.00;;;28.50;50.90;;;;;;4797433;29;20046;-54
2022/08/12 13:28:22;;;;;;;2.55;0.90;;;28.20;50.20;;;;;;4800400;29;20034;-50
2022/08/12 13:30:49;;;;;;;4.43;0.82;;;27.90;52.10;;;;;;4799552;29;20039;-52
2022/08/12 13:33:15;;;;;;;6.72;1.48;;;27.90;52.90;;;;;;4799694;29;20031;-53
2022/08/12 13:35:42;;;;;;;1.38;0.73;;;27.70;52.30;;;;;;4800275;29;20081;-54
2022/08/12 13:38:09;;;;;;;6.25;0.88;;;27.60;53.60;;;;;;4799106;29;20038;-55
2022/08/12 13:40:38;;;;;;;6.68;1.50;;;27.30;54.10;;;;;;4799845;29;20058;-51
2022/08/12 13:43:05;;;;;;;6.53;1.10;;;27.10;53.30;;;;;;4799679;29;20107;-53
2022/08/12 13:45:33;;;;;;;1.90;1.02;;;26.60;54.00;;;;;;4799639;29;20035;-50
2022/08/12 13:48:06;;;;;;;4.35;1.27;;;26.40;53.50;;;;;;4801187;29;20038;-50
2022/08/12 13:50:39;;;;;;;;;;;25.70;55.10;;;;;;4800056;29;20064;-53
2022/08/12 13:53:14;;;;;;;8.10;1.60;;;25.30;60.00;;;;;;4799200;29;19921;-53
2022/08/12 13:55:44;;;;;;;7.95;1.80;;;24.90;62.80;;;;;;4798964;29;20039;-52
2022/08/12 13:58:17;;;;;;;7.38;1.92;;;24.70;65.00;;;;;;4799837;29;20046;-53
2022/08/12 14:00:45;;;;;;;6.38;1.55;;;24.40;68.90;;;;;;4799245;29;20043;-51
2022/08/12 14:03:13;;;;;;;4.88;1.58;;;24.20;69.20;;;;;;4800020;29;20059;-50
2022/08/12 14:05:39;;;;;;;1.70;1.25;;;23.90;64.20;;;;;;4800012;29;20539;-50
2022/08/12 14:08:06;;;;;;;2.67;1.38;;;23.70;65.40;;;;;;4798759;29;20889;-53
2022/08/12 14:10:35;;;;;;;3.40;1.70;;;23.70;67.70;;;;;;4798862;29;20034;-50
2022/08/12 14:13:14;;;;;;;6.25;1.80;;;23.60;67.60;;;;;;4798518;29;20095;-51
2022/08/12 14:16:01;;;;;;;3.47;1.50;;;23.60;70.90;;;;;;4798587;29;20034;-50
2022/08/12 14:18:29;;;;;;;5.15;1.85;;;23.50;66.80;;;;;;4804456;29;20531;-52
2022/08/12 14:21:02;;;;;;;1.52;1.42;;;23.50;65.30;;;;;;4798411;29;20487;-53
2022/08/12 14:23:34;;;;;;;3.10;1.40;;;23.40;66.70;;;;;;4798794;29;22554;-51
2022/08/12 14:26:06;;;;;;;4.82;1.98;;;23.50;67.40;;;;;;4798859;29;20070;-52
2022/08/12 14:28:33;;;;;;;1.65;1.55;;;23.50;64.40;;;;;;4798924;29;20038;-50
2022/08/12 14:31:03;;;;;;;7.72;1.42;;;23.40;63.10;;;;;;4799328;29;20062;-52
2022/08/12 14:33:39;;;;;;;1.83;1.63;;;23.40;65.10;;;;;;4800095;29;20061;-51
2022/08/12 14:36:10;;;;;;;4.85;1.58;;;23.40;64.30;;;;;;4798845;29;20037;-51
2022/08/12 14:38:39;;;;;;;2.65;1.55;;;23.40;66.00;;;;;;4796613;29;20487;-52
2022/08/12 14:41:07;;;;;;;3.10;1.60;;;23.40;61.60;;;;;;4797277;29;20480;-49
2022/08/12 14:43:36;;;;;;;3.38;1.60;;;23.40;65.00;;;;;;4796759;29;20043;-51
2022/08/12 14:46:11;;;;;;;2.28;1.65;;;23.60;64.40;;;;;;4796378;29;20039;-51
2022/08/12 14:48:38;;;;;;;4.78;1.48;;;23.50;62.20;;;;;;4796585;29;20420;-51
2022/08/12 14:51:04;;;;;;;2.53;1.92;;;23.50;63.50;;;;;;4796416;29;20404;-53